sensor_id;sensor_type;location;lat;lon;timestamp;temperature;humidity
16838;DHT22;19510;54.486;9.046;2022-12-29T00:01:49;9.00;99.90
16838;DHT22;19510;54.486;9.046;2022-12-29T00:04:17;8.90;99.90
16838;DHT22;19510;54.486;9.046;2022-12-29T00:06:46;8.90;99.90
16838;DHT22;19510;54.486;9.046;2022-12-29T00:09:12;9.00;99.90
16838;DHT22;19510;54.486;9.046;2022-12-29T00:11:38;9.00;99.90
16838;DHT22;19510;54.486;9.046;2022-12-29T00:14:04;9.00;99.90
16838;DHT22;19510;54.486;9.046;2022-12-29T00:16:48;9.00;99.90
16838;DHT22;19510;54.486;9.046;2022-12-29T00:19:14;9.00;99.90
16838;DHT22;19510;54.486;9.046;2022-12-29T00:21:58;9.00;99.90
16838;DHT22;19510;54.486;9.046;2022-12-29T00:24:46;9.00;99.90
16838;DHT22;19510;54.486;9.046;2022-12-29T00:27:28;9.00;99.90
16838;DHT22;19510;54.486;9.046;2022-12-29T00:30:18;9.00;99.90
16838;DHT22;19510;54.486;9.046;2022-12-29T00:33:19;9.10;99.90
16838;DHT22;19510;54.486;9.046;2022-12-29T00:36:39;9.10;99.90
16838;DHT22;19510;54.486;9.046;2022-12-29T00:39:16;9.10;99.90
16838;DHT22;19510;54.486;9.046;2022-12-29T00:42:08;9.10;99.90
16838;DHT22;19510;54.486;9.046;2022-12-29T00:44:52;9.20;99.90
16838;DHT22;19510;54.486;9.046;2022-12-29T00:47:20;9.20;99.90
16838;DHT22;19510;54.486;9.046;2022-12-29T00:49:47;9.20;99.90
16838;DHT22;19510;54.486;9.046;2022-12-29T00:52:13;9.30;99.90
16838;DHT22;19510;54.486;9.046;2022-12-29T00:54:40;9.30;99.90
16838;DHT22;19510;54.486;9.046;2022-12-29T00:57:09;9.30;99.90
16838;DHT22;19510;54.486;9.046;2022-12-29T00:59:39;9.30;99.90
16838;DHT22;19510;54.486;9.046;2022-12-29T01:02:05;9.30;99.90
16838;DHT22;19510;54.486;9.046;2022-12-29T01:04:31;9.40;99.90
16838;DHT22;19510;54.486;9.046;2022-12-29T01:06:57;9.40;99.90
16838;DHT22;19510;54.486;9.046;2022-12-29T01:09:23;9.40;99.90
16838;DHT22;19510;54.486;9.046;2022-12-29T01:12:08;9.40;99.90
16838;DHT22;19510;54.486;9.046;2022-12-29T01:14:37;9.40;99.90
16838;DHT22;19510;54.486;9.046;2022-12-29T01:17:03;9.50;99.90
16838;DHT22;19510;54.486;9.046;2022-12-29T01:19:29;9.50;99.90
16838;DHT22;19510;54.486;9.046;2022-12-29T01:21:55;9.50;99.90
16838;DHT22;19510;54.486;9.046;2022-12-29T01:24:21;9.50;99.90
16838;DHT22;19510;54.486;9.046;2022-12-29T01:26:47;9.50;99.90
16838;DHT22;19510;54.486;9.046;2022-12-29T01:29:14;9.50;99.90
16838;DHT22;19510;54.486;9.046;2022-12-29T01:31:39;9.50;99.90
16838;DHT22;19510;54.486;9.046;2022-12-29T01:34:05;9.50;99.90
16838;DHT22;19510;54.486;9.046;2022-12-29T01:36:31;9.50;99.90
16838;DHT22;19510;54.486;9.046;2022-12-29T01:38:57;9.50;99.90
16838;DHT22;19510;54.486;9.046;2022-12-29T01:41:23;9.60;99.90
16838;DHT22;19510;54.486;9.046;2022-12-29T01:43:54;9.60;99.90
16838;DHT22;19510;54.486;9.046;2022-12-29T01:46:40;9.60;99.90
16838;DHT22;19510;54.486;9.046;2022-12-29T01:49:24;9.60;99.90
16838;DHT22;19510;54.486;9.046;2022-12-29T01:51:56;9.60;99.90
16838;DHT22;19510;54.486;9.046;2022-12-29T01:54:30;9.60;99.90
16838;DHT22;19510;54.486;9.046;2022-12-29T01:57:00;9.60;99.90
16838;DHT22;19510;54.486;9.046;2022-12-29T01:59:39;9.60;99.90
16838;DHT22;19510;54.486;9.046;2022-12-29T02:02:06;9.60;99.90
16838;DHT22;19510;54.486;9.046;2022-12-29T02:04:33;9.60;99.90
16838;DHT22;19510;54.486;9.046;2022-12-29T02:07:09;9.60;99.90
16838;DHT22;19510;54.486;9.046;2022-12-29T02:09:37;9.60;99.90
16838;DHT22;19510;54.486;9.046;2022-12-29T02:12:03;9.70;99.90
16838;DHT22;19510;54.486;9.046;2022-12-29T02:14:29;9.60;99.90
16838;DHT22;19510;54.486;9.046;2022-12-29T02:22:41;9.60;99.90
16838;DHT22;19510;54.486;9.046;2022-12-29T02:30:48;9.70;99.90
16838;DHT22;19510;54.486;9.046;2022-12-29T02:36:08;9.70;99.90
16838;DHT22;19510;54.486;9.046;2022-12-29T02:47:22;9.70;99.90
16838;DHT22;19510;54.486;9.046;2022-12-29T02:49:57;9.70;99.90
16838;DHT22;19510;54.486;9.046;2022-12-29T02:52:31;9.80;99.90
16838;DHT22;19510;54.486;9.046;2022-12-29T02:54:59;9.80;99.90
16838;DHT22;19510;54.486;9.046;2022-12-29T03:00:00;9.80;99.90
16838;DHT22;19510;54.486;9.046;2022-12-29T03:02:49;9.80;99.90
16838;DHT22;19510;54.486;9.046;2022-12-29T03:13:45;9.80;99.90
16838;DHT22;19510;54.486;9.046;2022-12-29T03:16:51;9.90;99.90
16838;DHT22;19510;54.486;9.046;2022-12-29T03:19:28;9.90;99.90
16838;DHT22;19510;54.486;9.046;2022-12-29T03:22:07;9.90;99.90
16838;DHT22;19510;54.486;9.046;2022-12-29T03:24:56;9.90;99.90
16838;DHT22;19510;54.486;9.046;2022-12-29T03:27:31;9.90;99.90
16838;DHT22;19510;54.486;9.046;2022-12-29T03:30:03;9.90;99.90
16838;DHT22;19510;54.486;9.046;2022-12-29T03:32:42;9.90;99.90
16838;DHT22;19510;54.486;9.046;2022-12-29T03:35:10;9.90;99.90
16838;DHT22;19510;54.486;9.046;2022-12-29T03:37:41;9.90;99.90
16838;DHT22;19510;54.486;9.046;2022-12-29T03:40:11;9.90;99.90
16838;DHT22;19510;54.486;9.046;2022-12-29T03:42:38;9.90;99.90
16838;DHT22;19510;54.486;9.046;2022-12-29T03:45:06;9.90;99.90
16838;DHT22;19510;54.486;9.046;2022-12-29T03:47:33;9.90;99.90
16838;DHT22;19510;54.486;9.046;2022-12-29T03:49:58;9.90;99.90
16838;DHT22;19510;54.486;9.046;2022-12-29T03:52:24;9.90;99.90
16838;DHT22;19510;54.486;9.046;2022-12-29T03:54:52;9.90;99.90
16838;DHT22;19510;54.486;9.046;2022-12-29T03:57:20;10.00;99.90
16838;DHT22;19510;54.486;9.046;2022-12-29T03:59:45;9.90;99.90
16838;DHT22;19510;54.486;9.046;2022-12-29T04:02:11;10.00;99.90
16838;DHT22;19510;54.486;9.046;2022-12-29T04:04:37;10.00;99.90
16838;DHT22;19510;54.486;9.046;2022-12-29T04:07:02;10.00;99.90
16838;DHT22;19510;54.486;9.046;2022-12-29T04:09:30;10.00;99.90
16838;DHT22;19510;54.486;9.046;2022-12-29T04:11:59;10.00;99.90
16838;DHT22;19510;54.486;9.046;2022-12-29T04:14:27;10.00;99.90
16838;DHT22;19510;54.486;9.046;2022-12-29T04:16:55;10.00;99.90
16838;DHT22;19510;54.486;9.046;2022-12-29T04:19:20;10.00;99.90
16838;DHT22;19510;54.486;9.046;2022-12-29T04:21:46;10.00;99.90
16838;DHT22;19510;54.486;9.046;2022-12-29T04:24:12;10.10;99.90
16838;DHT22;19510;54.486;9.046;2022-12-29T04:26:40;10.00;99.90
16838;DHT22;19510;54.486;9.046;2022-12-29T04:29:11;10.00;99.90
16838;DHT22;19510;54.486;9.046;2022-12-29T04:31:36;10.10;99.90
16838;DHT22;19510;54.486;9.046;2022-12-29T04:34:02;10.10;99.90
16838;DHT22;19510;54.486;9.046;2022-12-29T04:36:28;10.10;99.90
16838;DHT22;19510;54.486;9.046;2022-12-29T04:38:54;10.10;99.90
16838;DHT22;19510;54.486;9.046;2022-12-29T04:41:31;10.10;99.90
16838;DHT22;19510;54.486;9.046;2022-12-29T04:44:03;10.10;99.90
16838;DHT22;19510;54.486;9.046;2022-12-29T04:46:28;10.10;99.90
16838;DHT22;19510;54.486;9.046;2022-12-29T04:48:54;10.10;99.90
16838;DHT22;19510;54.486;9.046;2022-12-29T04:51:20;10.10;99.90
16838;DHT22;19510;54.486;9.046;2022-12-29T04:53:46;10.10;99.90
16838;DHT22;19510;54.486;9.046;2022-12-29T04:56:11;10.20;99.90
16838;DHT22;19510;54.486;9.046;2022-12-29T04:58:37;10.10;99.90
16838;DHT22;19510;54.486;9.046;2022-12-29T05:01:05;10.10;99.90
16838;DHT22;19510;54.486;9.046;2022-12-29T05:03:30;10.10;99.90
16838;DHT22;19510;54.486;9.046;2022-12-29T05:05:57;10.00;99.90
16838;DHT22;19510;54.486;9.046;2022-12-29T05:08:23;10.00;99.90
16838;DHT22;19510;54.486;9.046;2022-12-29T05:10:51;10.00;99.90
16838;DHT22;19510;54.486;9.046;2022-12-29T05:13:17;10.00;99.90
16838;DHT22;19510;54.486;9.046;2022-12-29T05:15:51;9.80;99.90
16838;DHT22;19510;54.486;9.046;2022-12-29T05:18:17;9.70;99.90
16838;DHT22;19510;54.486;9.046;2022-12-29T05:20:43;9.70;99.90
16838;DHT22;19510;54.486;9.046;2022-12-29T05:23:09;9.60;99.90
16838;DHT22;19510;54.486;9.046;2022-12-29T05:25:35;9.50;99.90
16838;DHT22;19510;54.486;9.046;2022-12-29T05:28:01;9.50;99.90
16838;DHT22;19510;54.486;9.046;2022-12-29T05:30:26;9.40;99.90
16838;DHT22;19510;54.486;9.046;2022-12-29T05:32:52;9.40;99.90
16838;DHT22;19510;54.486;9.046;2022-12-29T05:35:20;9.40;99.90
16838;DHT22;19510;54.486;9.046;2022-12-29T05:37:45;9.40;99.90
16838;DHT22;19510;54.486;9.046;2022-12-29T05:40:11;9.40;99.90
16838;DHT22;19510;54.486;9.046;2022-12-29T05:42:37;9.30;99.90
16838;DHT22;19510;54.486;9.046;2022-12-29T05:45:06;9.30;99.90
16838;DHT22;19510;54.486;9.046;2022-12-29T05:47:34;9.30;99.90
16838;DHT22;19510;54.486;9.046;2022-12-29T05:50:01;9.30;99.90
16838;DHT22;19510;54.486;9.046;2022-12-29T05:52:26;9.30;99.90
16838;DHT22;19510;54.486;9.046;2022-12-29T05:54:52;9.30;99.90
16838;DHT22;19510;54.486;9.046;2022-12-29T05:57:18;9.20;99.90
16838;DHT22;19510;54.486;9.046;2022-12-29T05:59:43;9.30;99.90
16838;DHT22;19510;54.486;9.046;2022-12-29T06:02:09;9.20;99.90
16838;DHT22;19510;54.486;9.046;2022-12-29T06:04:35;9.20;99.90
16838;DHT22;19510;54.486;9.046;2022-12-29T06:07:01;9.20;99.90
16838;DHT22;19510;54.486;9.046;2022-12-29T06:09:29;9.20;99.90
16838;DHT22;19510;54.486;9.046;2022-12-29T06:11:57;9.20;99.90
16838;DHT22;19510;54.486;9.046;2022-12-29T06:14:22;9.20;99.90
16838;DHT22;19510;54.486;9.046;2022-12-29T06:16:48;9.20;99.90
16838;DHT22;19510;54.486;9.046;2022-12-29T06:19:14;9.30;99.90
16838;DHT22;19510;54.486;9.046;2022-12-29T06:21:39;9.30;99.90
16838;DHT22;19510;54.486;9.046;2022-12-29T06:24:10;9.30;99.90
16838;DHT22;19510;54.486;9.046;2022-12-29T06:26:36;9.30;99.90
16838;DHT22;19510;54.486;9.046;2022-12-29T06:29:02;9.30;99.90
16838;DHT22;19510;54.486;9.046;2022-12-29T06:31:28;9.40;99.90
16838;DHT22;19510;54.486;9.046;2022-12-29T06:33:54;9.40;99.90
16838;DHT22;19510;54.486;9.046;2022-12-29T06:36:19;9.50;99.90
16838;DHT22;19510;54.486;9.046;2022-12-29T06:38:45;9.60;99.90
16838;DHT22;19510;54.486;9.046;2022-12-29T06:41:11;9.50;99.90
16838;DHT22;19510;54.486;9.046;2022-12-29T06:43:36;9.60;99.90
16838;DHT22;19510;54.486;9.046;2022-12-29T06:46:05;9.60;99.90
16838;DHT22;19510;54.486;9.046;2022-12-29T06:48:33;9.60;99.90
16838;DHT22;19510;54.486;9.046;2022-12-29T06:50:58;9.60;99.90
16838;DHT22;19510;54.486;9.046;2022-12-29T06:53:24;9.60;99.90
16838;DHT22;19510;54.486;9.046;2022-12-29T06:55:50;9.60;99.90
16838;DHT22;19510;54.486;9.046;2022-12-29T06:58:15;9.60;99.90
16838;DHT22;19510;54.486;9.046;2022-12-29T07:00:41;9.60;99.90
16838;DHT22;19510;54.486;9.046;2022-12-29T07:03:07;9.60;99.90
16838;DHT22;19510;54.486;9.046;2022-12-29T07:05:35;9.60;99.90
16838;DHT22;19510;54.486;9.046;2022-12-29T07:08:01;9.70;99.90
16838;DHT22;19510;54.486;9.046;2022-12-29T07:10:27;9.70;99.90
16838;DHT22;19510;54.486;9.046;2022-12-29T07:12:53;9.70;99.90
16838;DHT22;19510;54.486;9.046;2022-12-29T07:15:19;9.70;99.90
16838;DHT22;19510;54.486;9.046;2022-12-29T07:17:47;9.70;99.90
16838;DHT22;19510;54.486;9.046;2022-12-29T07:20:15;9.70;99.90
16838;DHT22;19510;54.486;9.046;2022-12-29T07:22:40;9.70;99.90
16838;DHT22;19510;54.486;9.046;2022-12-29T07:25:07;9.70;99.90
16838;DHT22;19510;54.486;9.046;2022-12-29T07:27:35;9.60;99.90
16838;DHT22;19510;54.486;9.046;2022-12-29T07:30:00;9.60;99.90
16838;DHT22;19510;54.486;9.046;2022-12-29T07:32:26;9.50;99.90
16838;DHT22;19510;54.486;9.046;2022-12-29T07:34:52;9.50;99.90
16838;DHT22;19510;54.486;9.046;2022-12-29T07:37:18;9.50;99.90
16838;DHT22;19510;54.486;9.046;2022-12-29T07:39:44;9.50;99.90
16838;DHT22;19510;54.486;9.046;2022-12-29T07:42:09;9.50;99.90
16838;DHT22;19510;54.486;9.046;2022-12-29T07:44:35;9.40;99.90
16838;DHT22;19510;54.486;9.046;2022-12-29T07:47:02;9.40;99.90
16838;DHT22;19510;54.486;9.046;2022-12-29T07:49:28;9.40;99.90
16838;DHT22;19510;54.486;9.046;2022-12-29T07:51:53;9.40;99.90
16838;DHT22;19510;54.486;9.046;2022-12-29T07:54:19;9.50;99.90
16838;DHT22;19510;54.486;9.046;2022-12-29T07:56:45;9.40;99.90
16838;DHT22;19510;54.486;9.046;2022-12-29T07:59:13;9.40;99.90
16838;DHT22;19510;54.486;9.046;2022-12-29T08:01:41;9.40;99.90
16838;DHT22;19510;54.486;9.046;2022-12-29T08:04:07;9.40;99.90
16838;DHT22;19510;54.486;9.046;2022-12-29T08:06:33;9.40;99.90
16838;DHT22;19510;54.486;9.046;2022-12-29T08:08:59;9.40;99.90
16838;DHT22;19510;54.486;9.046;2022-12-29T08:11:28;9.40;99.90
16838;DHT22;19510;54.486;9.046;2022-12-29T08:13:56;9.30;99.90
16838;DHT22;19510;54.486;9.046;2022-12-29T08:16:22;9.40;99.90
16838;DHT22;19510;54.486;9.046;2022-12-29T08:18:50;9.30;99.90
16838;DHT22;19510;54.486;9.046;2022-12-29T08:21:18;9.30;99.90
16838;DHT22;19510;54.486;9.046;2022-12-29T08:23:44;9.30;99.90
16838;DHT22;19510;54.486;9.046;2022-12-29T08:26:12;9.30;99.90
16838;DHT22;19510;54.486;9.046;2022-12-29T08:28:37;9.20;99.90
16838;DHT22;19510;54.486;9.046;2022-12-29T08:31:04;9.20;99.90
16838;DHT22;19510;54.486;9.046;2022-12-29T08:33:30;9.20;99.90
16838;DHT22;19510;54.486;9.046;2022-12-29T08:36:03;9.20;99.90
16838;DHT22;19510;54.486;9.046;2022-12-29T08:38:32;9.20;99.90
16838;DHT22;19510;54.486;9.046;2022-12-29T08:41:01;9.20;99.90
16838;DHT22;19510;54.486;9.046;2022-12-29T08:43:28;9.30;99.90
16838;DHT22;19510;54.486;9.046;2022-12-29T08:45:54;9.30;99.90
16838;DHT22;19510;54.486;9.046;2022-12-29T08:48:19;9.30;99.90
16838;DHT22;19510;54.486;9.046;2022-12-29T08:50:48;9.30;99.90
16838;DHT22;19510;54.486;9.046;2022-12-29T08:53:17;9.30;99.90
16838;DHT22;19510;54.486;9.046;2022-12-29T08:55:46;9.30;99.90
16838;DHT22;19510;54.486;9.046;2022-12-29T08:58:14;9.30;99.90
16838;DHT22;19510;54.486;9.046;2022-12-29T09:00:42;9.40;99.90
16838;DHT22;19510;54.486;9.046;2022-12-29T09:03:08;9.30;99.90
16838;DHT22;19510;54.486;9.046;2022-12-29T09:05:36;9.40;99.90
16838;DHT22;19510;54.486;9.046;2022-12-29T09:08:04;9.40;99.90
16838;DHT22;19510;54.486;9.046;2022-12-29T09:10:32;9.40;99.90
16838;DHT22;19510;54.486;9.046;2022-12-29T09:13:00;9.40;99.90
16838;DHT22;19510;54.486;9.046;2022-12-29T09:15:26;9.40;99.90
16838;DHT22;19510;54.486;9.046;2022-12-29T09:17:51;9.40;99.90
16838;DHT22;19510;54.486;9.046;2022-12-29T09:20:23;9.50;99.90
16838;DHT22;19510;54.486;9.046;2022-12-29T09:22:51;9.50;99.90
16838;DHT22;19510;54.486;9.046;2022-12-29T09:25:17;9.50;99.90
16838;DHT22;19510;54.486;9.046;2022-12-29T09:27:46;9.50;99.90
16838;DHT22;19510;54.486;9.046;2022-12-29T09:30:13;9.50;99.90
16838;DHT22;19510;54.486;9.046;2022-12-29T09:32:40;9.50;99.90
16838;DHT22;19510;54.486;9.046;2022-12-29T09:35:08;9.50;99.90
16838;DHT22;19510;54.486;9.046;2022-12-29T09:37:34;9.60;99.90
16838;DHT22;19510;54.486;9.046;2022-12-29T09:40:00;9.50;99.90
16838;DHT22;19510;54.486;9.046;2022-12-29T09:42:41;9.50;99.90
16838;DHT22;19510;54.486;9.046;2022-12-29T09:45:16;9.50;99.90
16838;DHT22;19510;54.486;9.046;2022-12-29T09:47:44;9.60;99.90
16838;DHT22;19510;54.486;9.046;2022-12-29T09:50:30;9.60;99.90
16838;DHT22;19510;54.486;9.046;2022-12-29T09:55:36;9.60;99.90
16838;DHT22;19510;54.486;9.046;2022-12-29T09:58:10;9.60;99.90
16838;DHT22;19510;54.486;9.046;2022-12-29T10:00:54;9.60;99.90
16838;DHT22;19510;54.486;9.046;2022-12-29T10:03:24;9.60;99.90
16838;DHT22;19510;54.486;9.046;2022-12-29T10:09:13;9.50;99.90
16838;DHT22;19510;54.486;9.046;2022-12-29T10:17:48;9.50;99.90
16838;DHT22;19510;54.486;9.046;2022-12-29T10:23:11;9.40;99.90
16838;DHT22;19510;54.486;9.046;2022-12-29T10:25:44;9.40;99.90
16838;DHT22;19510;54.486;9.046;2022-12-29T10:28:20;9.40;99.90
16838;DHT22;19510;54.486;9.046;2022-12-29T10:30:48;9.40;99.90
16838;DHT22;19510;54.486;9.046;2022-12-29T10:33:20;9.40;99.90
16838;DHT22;19510;54.486;9.046;2022-12-29T10:35:47;9.40;99.90
16838;DHT22;19510;54.486;9.046;2022-12-29T10:38:26;9.40;99.90
16838;DHT22;19510;54.486;9.046;2022-12-29T10:41:13;9.40;99.90
16838;DHT22;19510;54.486;9.046;2022-12-29T10:43:48;9.40;99.90
16838;DHT22;19510;54.486;9.046;2022-12-29T10:46:25;9.40;99.90
16838;DHT22;19510;54.486;9.046;2022-12-29T10:48:52;9.40;99.90
16838;DHT22;19510;54.486;9.046;2022-12-29T10:51:24;9.40;99.90
16838;DHT22;19510;54.486;9.046;2022-12-29T10:54:05;9.40;99.90
16838;DHT22;19510;54.486;9.046;2022-12-29T10:56:39;9.40;99.90
16838;DHT22;19510;54.486;9.046;2022-12-29T10:59:33;9.40;99.90
16838;DHT22;19510;54.486;9.046;2022-12-29T11:03:00;9.50;99.90
16838;DHT22;19510;54.486;9.046;2022-12-29T11:07:47;9.50;99.90
16838;DHT22;19510;54.486;9.046;2022-12-29T11:13:05;9.60;99.90
16838;DHT22;19510;54.486;9.046;2022-12-29T11:15:49;9.60;99.90
16838;DHT22;19510;54.486;9.046;2022-12-29T11:18:33;9.60;99.90
16838;DHT22;19510;54.486;9.046;2022-12-29T11:21:07;9.60;99.90
16838;DHT22;19510;54.486;9.046;2022-12-29T11:24:05;9.60;99.90
16838;DHT22;19510;54.486;9.046;2022-12-29T11:26:33;9.70;99.90
16838;DHT22;19510;54.486;9.046;2022-12-29T11:31:44;9.60;99.90
16838;DHT22;19510;54.486;9.046;2022-12-29T11:36:53;9.70;99.90
16838;DHT22;19510;54.486;9.046;2022-12-29T11:39:33;9.60;99.90
16838;DHT22;19510;54.486;9.046;2022-12-29T11:42:00;9.60;99.90
16838;DHT22;19510;54.486;9.046;2022-12-29T11:44:34;9.60;99.90
16838;DHT22;19510;54.486;9.046;2022-12-29T11:47:12;9.60;99.90
16838;DHT22;19510;54.486;9.046;2022-12-29T11:49:38;9.50;99.90
16838;DHT22;19510;54.486;9.046;2022-12-29T11:52:04;9.50;99.90
16838;DHT22;19510;54.486;9.046;2022-12-29T11:54:35;9.50;99.90
16838;DHT22;19510;54.486;9.046;2022-12-29T11:57:14;9.50;99.90
16838;DHT22;19510;54.486;9.046;2022-12-29T11:59:54;9.40;99.90
16838;DHT22;19510;54.486;9.046;2022-12-29T12:02:32;9.40;99.90
16838;DHT22;19510;54.486;9.046;2022-12-29T12:05:36;9.30;99.90
16838;DHT22;19510;54.486;9.046;2022-12-29T12:08:31;9.30;99.90
16838;DHT22;19510;54.486;9.046;2022-12-29T12:16:53;9.10;99.90
16838;DHT22;19510;54.486;9.046;2022-12-29T12:22:32;9.10;99.90
16838;DHT22;19510;54.486;9.046;2022-12-29T12:25:21;9.10;99.90
16838;DHT22;19510;54.486;9.046;2022-12-29T12:28:00;9.10;99.90
16838;DHT22;19510;54.486;9.046;2022-12-29T12:30:31;9.10;99.90
16838;DHT22;19510;54.486;9.046;2022-12-29T12:36:07;9.10;99.90
16838;DHT22;19510;54.486;9.046;2022-12-29T12:39:18;9.00;99.90
16838;DHT22;19510;54.486;9.046;2022-12-29T12:45:14;8.90;99.90
16838;DHT22;19510;54.486;9.046;2022-12-29T12:47:52;9.00;99.90
16838;DHT22;19510;54.486;9.046;2022-12-29T12:51:02;8.90;99.90
16838;DHT22;19510;54.486;9.046;2022-12-29T12:53:51;9.00;99.90
16838;DHT22;19510;54.486;9.046;2022-12-29T12:59:03;9.00;99.90
16838;DHT22;19510;54.486;9.046;2022-12-29T13:01:46;9.00;99.90
16838;DHT22;19510;54.486;9.046;2022-12-29T13:10:14;9.10;99.90
16838;DHT22;19510;54.486;9.046;2022-12-29T13:18:29;9.00;99.90
16838;DHT22;19510;54.486;9.046;2022-12-29T13:32:57;9.00;99.90
16838;DHT22;19510;54.486;9.046;2022-12-29T13:38:21;9.00;99.90
16838;DHT22;19510;54.486;9.046;2022-12-29T13:41:01;8.90;99.90
16838;DHT22;19510;54.486;9.046;2022-12-29T13:43:29;8.90;99.90
16838;DHT22;19510;54.486;9.046;2022-12-29T13:46:05;8.90;99.90
16838;DHT22;19510;54.486;9.046;2022-12-29T13:48:58;8.90;99.90
16838;DHT22;19510;54.486;9.046;2022-12-29T13:51:28;8.90;99.90
16838;DHT22;19510;54.486;9.046;2022-12-29T13:53:56;8.80;99.90
16838;DHT22;19510;54.486;9.046;2022-12-29T13:56:38;8.80;99.90
16838;DHT22;19510;54.486;9.046;2022-12-29T13:59:09;8.80;99.90
16838;DHT22;19510;54.486;9.046;2022-12-29T14:04:20;8.90;99.90
16838;DHT22;19510;54.486;9.046;2022-12-29T14:06:58;8.90;99.90
16838;DHT22;19510;54.486;9.046;2022-12-29T14:09:53;8.90;99.90
16838;DHT22;19510;54.486;9.046;2022-12-29T14:15:04;8.90;99.90
16838;DHT22;19510;54.486;9.046;2022-12-29T14:17:34;8.90;99.90
16838;DHT22;19510;54.486;9.046;2022-12-29T14:20:01;8.90;99.90
16838;DHT22;19510;54.486;9.046;2022-12-29T14:22:28;8.90;99.90
16838;DHT22;19510;54.486;9.046;2022-12-29T14:24:53;8.80;99.90
16838;DHT22;19510;54.486;9.046;2022-12-29T14:29:47;8.80;99.90
16838;DHT22;19510;54.486;9.046;2022-12-29T14:34:52;8.80;99.90
16838;DHT22;19510;54.486;9.046;2022-12-29T14:37:27;8.80;99.90
16838;DHT22;19510;54.486;9.046;2022-12-29T14:40:23;8.80;99.90
16838;DHT22;19510;54.486;9.046;2022-12-29T14:42:55;8.80;99.90
16838;DHT22;19510;54.486;9.046;2022-12-29T14:45:28;8.80;99.90
16838;DHT22;19510;54.486;9.046;2022-12-29T14:47:55;8.80;99.90
16838;DHT22;19510;54.486;9.046;2022-12-29T14:52:57;8.80;99.90
16838;DHT22;19510;54.486;9.046;2022-12-29T14:58:02;8.80;99.90
16838;DHT22;19510;54.486;9.046;2022-12-29T15:00:36;8.80;99.90
16838;DHT22;19510;54.486;9.046;2022-12-29T15:03:07;8.80;99.90
16838;DHT22;19510;54.486;9.046;2022-12-29T15:05:55;8.80;99.90
16838;DHT22;19510;54.486;9.046;2022-12-29T15:08:26;8.80;99.90
16838;DHT22;19510;54.486;9.046;2022-12-29T15:13:42;8.80;99.90
16838;DHT22;19510;54.486;9.046;2022-12-29T15:16:25;8.80;99.90
16838;DHT22;19510;54.486;9.046;2022-12-29T15:18:51;8.80;99.90
16838;DHT22;19510;54.486;9.046;2022-12-29T15:21:31;8.80;99.90
16838;DHT22;19510;54.486;9.046;2022-12-29T15:23:57;8.80;99.90
16838;DHT22;19510;54.486;9.046;2022-12-29T15:26:23;8.80;99.90
16838;DHT22;19510;54.486;9.046;2022-12-29T15:29:03;8.70;99.90
16838;DHT22;19510;54.486;9.046;2022-12-29T15:31:29;8.70;99.90
16838;DHT22;19510;54.486;9.046;2022-12-29T15:34:23;8.70;99.90
16838;DHT22;19510;54.486;9.046;2022-12-29T15:36:50;8.70;99.90
16838;DHT22;19510;54.486;9.046;2022-12-29T15:47:18;8.60;99.90
16838;DHT22;19510;54.486;9.046;2022-12-29T15:50:00;8.60;99.90
16838;DHT22;19510;54.486;9.046;2022-12-29T15:52:29;8.60;99.90
16838;DHT22;19510;54.486;9.046;2022-12-29T15:55:00;8.50;99.90
16838;DHT22;19510;54.486;9.046;2022-12-29T15:57:29;8.40;99.90
16838;DHT22;19510;54.486;9.046;2022-12-29T15:59:58;8.50;99.90
16838;DHT22;19510;54.486;9.046;2022-12-29T16:02:25;8.40;99.90
16838;DHT22;19510;54.486;9.046;2022-12-29T16:04:55;8.40;99.90
16838;DHT22;19510;54.486;9.046;2022-12-29T16:07:31;8.40;99.90
16838;DHT22;19510;54.486;9.046;2022-12-29T16:10:01;8.40;99.90
16838;DHT22;19510;54.486;9.046;2022-12-29T16:12:35;8.30;99.90
16838;DHT22;19510;54.486;9.046;2022-12-29T16:15:14;8.30;99.90
16838;DHT22;19510;54.486;9.046;2022-12-29T16:17:50;8.30;99.90
16838;DHT22;19510;54.486;9.046;2022-12-29T16:20:32;8.30;99.90
16838;DHT22;19510;54.486;9.046;2022-12-29T16:23:00;8.30;99.90
16838;DHT22;19510;54.486;9.046;2022-12-29T16:25:29;8.40;99.90
16838;DHT22;19510;54.486;9.046;2022-12-29T16:27:59;8.40;99.90
16838;DHT22;19510;54.486;9.046;2022-12-29T16:30:33;8.40;99.90
16838;DHT22;19510;54.486;9.046;2022-12-29T16:33:04;8.40;99.90
16838;DHT22;19510;54.486;9.046;2022-12-29T16:35:46;8.40;99.90
16838;DHT22;19510;54.486;9.046;2022-12-29T16:38:16;8.50;99.90
16838;DHT22;19510;54.486;9.046;2022-12-29T16:40:59;8.50;99.90
16838;DHT22;19510;54.486;9.046;2022-12-29T16:43:35;8.60;99.90
16838;DHT22;19510;54.486;9.046;2022-12-29T16:46:21;8.60;99.90
16838;DHT22;19510;54.486;9.046;2022-12-29T16:48:52;8.60;99.90
16838;DHT22;19510;54.486;9.046;2022-12-29T16:51:28;8.60;99.90
16838;DHT22;19510;54.486;9.046;2022-12-29T16:53:59;8.60;99.90
16838;DHT22;19510;54.486;9.046;2022-12-29T16:56:33;8.50;99.90
16838;DHT22;19510;54.486;9.046;2022-12-29T16:59:25;8.60;99.90
16838;DHT22;19510;54.486;9.046;2022-12-29T17:01:51;8.50;99.90
16838;DHT22;19510;54.486;9.046;2022-12-29T17:04:17;8.60;99.90
16838;DHT22;19510;54.486;9.046;2022-12-29T17:06:42;8.50;99.90
16838;DHT22;19510;54.486;9.046;2022-12-29T17:09:19;8.50;99.90
16838;DHT22;19510;54.486;9.046;2022-12-29T17:11:48;8.60;99.90
16838;DHT22;19510;54.486;9.046;2022-12-29T17:17:09;8.60;99.90
16838;DHT22;19510;54.486;9.046;2022-12-29T17:19:36;8.60;99.90
16838;DHT22;19510;54.486;9.046;2022-12-29T17:22:09;8.60;99.90
16838;DHT22;19510;54.486;9.046;2022-12-29T17:24:39;8.60;99.90
16838;DHT22;19510;54.486;9.046;2022-12-29T17:27:16;8.60;99.90
16838;DHT22;19510;54.486;9.046;2022-12-29T17:29:46;8.60;99.90
16838;DHT22;19510;54.486;9.046;2022-12-29T17:32:15;8.60;99.90
16838;DHT22;19510;54.486;9.046;2022-12-29T17:34:43;8.60;99.90
16838;DHT22;19510;54.486;9.046;2022-12-29T17:37:28;8.60;99.90
16838;DHT22;19510;54.486;9.046;2022-12-29T17:39:57;8.60;99.90
16838;DHT22;19510;54.486;9.046;2022-12-29T17:42:22;8.50;99.90
16838;DHT22;19510;54.486;9.046;2022-12-29T17:44:48;8.50;99.90
16838;DHT22;19510;54.486;9.046;2022-12-29T17:47:16;8.50;99.90
16838;DHT22;19510;54.486;9.046;2022-12-29T17:49:42;8.50;99.90
16838;DHT22;19510;54.486;9.046;2022-12-29T17:52:13;8.50;99.90
16838;DHT22;19510;54.486;9.046;2022-12-29T17:55:01;8.50;99.90
16838;DHT22;19510;54.486;9.046;2022-12-29T17:57:29;8.50;99.90
16838;DHT22;19510;54.486;9.046;2022-12-29T17:59:55;8.50;99.90
16838;DHT22;19510;54.486;9.046;2022-12-29T18:02:25;8.60;99.90
16838;DHT22;19510;54.486;9.046;2022-12-29T18:04:51;8.50;99.90
16838;DHT22;19510;54.486;9.046;2022-12-29T18:07:17;8.50;99.90
16838;DHT22;19510;54.486;9.046;2022-12-29T18:09:43;8.50;99.90
16838;DHT22;19510;54.486;9.046;2022-12-29T18:12:42;8.50;99.90
16838;DHT22;19510;54.486;9.046;2022-12-29T18:15:24;8.50;99.90
16838;DHT22;19510;54.486;9.046;2022-12-29T18:18:01;8.50;99.90
16838;DHT22;19510;54.486;9.046;2022-12-29T18:20:28;8.50;99.90
16838;DHT22;19510;54.486;9.046;2022-12-29T18:22:54;8.50;99.90
16838;DHT22;19510;54.486;9.046;2022-12-29T18:25:37;8.50;99.90